Flight Track Log - Related Links

Times and Time Zones

All times are in EDT time to prevent confusion due to time zone crossing. See the N498QS flight status page for this flight to view local times or setup timezone preferences in your user account.

Time Position Orientation Groundspeed Altitude Reporting Facility
EDT Latitude Longitude Course Direction KTS MPH feet Rate Location/Type
Thu 06:46:59 PM 41.0333 -73.7333 201° Southwest 196 226 2,100  Level New York TRACON
Thu 06:47:59 PM 41.0500 -73.8000 288° West 228 262 4,900 2,950 Climbing New York TRACON
Thu 06:48:59 PM 41.0167 -73.8667 236° Southwest 251 289 8,000 2,900 Climbing New York TRACON
Thu 06:49:59 PM 40.9500 -73.8833 191° South 260 299 10,700 2,000 Climbing New York TRACON
Thu 06:50:59 PM 40.8667 -73.9167 197° South 325 374 12,000 650 Climbing New York TRACON
Thu 06:51:59 PM 40.7833 -73.9667 204° Southwest 287 330 12,000  Level New York TRACON
Thu 06:52:00 PM 40.4223 -74.0389 201° Southwest  Level FlightAware Approximate
Thu 06:52:59 PM 40.7167 -74.0000 201° Southwest 272 313 12,000  Level New York TRACON
Thu 06:53:59 PM 40.6833 -74.0833 242° Southwest 270 311 12,000  Level New York TRACON
Thu 06:54:59 PM 40.6333 -74.1667 232° Southwest 271 312 12,000 597 Level New York TRACON
Thu 06:57:00 PM 40.5558 -74.3356 239° Southwest 284 327 13,800 1,233 Climbing New York Center
Thu 06:57:59 PM 40.5136 -74.4181 236° Southwest 284 327 15,700 1,119 Climbing New York Center
Thu 06:58:58 PM 40.4439 -74.3817 158° South 243 280 16,000 151 Climbing New York Center
Thu 06:59:58 PM 40.4117 -74.2764 112° Southeast 277 319 16,000  Level New York Center
Thu 07:00:58 PM 40.3775 -74.1631 112° Southeast 320 368 16,000 347 Level New York Center
Thu 07:01:59 PM 40.3192 -74.0892 136° Southeast 299 344 16,700 496 Climbing New York Center
Thu 07:02:59 PM 40.2344 -74.1394 204° Southwest 286 329 17,000 149 Climbing New York Center
Thu 07:04:00 PM 40.1497 -74.1817 201° Southwest 345 397 17,000 606 Level New York Center
Thu 07:04:48 PM 40.0786 -74.2142 199° South 369 425 18,100 1,833 Climbing Washington Center
Thu 07:05:48 PM 39.9750 -74.2756 204° Southwest 369 425 20,300 2,000 Climbing Washington Center
Thu 07:06:48 PM 39.8883 -74.3639 218° Southwest 379 436 22,100 1,800 Climbing Washington Center
Thu 07:07:48 PM 39.8019 -74.4517 218° Southwest 397 457 23,900 1,800 Climbing Washington Center
Thu 07:08:48 PM 39.7194 -74.5556 224° Southwest 410 472 25,700 1,750 Climbing Washington Center
Thu 07:09:48 PM 39.6369 -74.6672 226° Southwest 421 484 27,400 1,500 Climbing Washington Center
Thu 07:10:48 PM 39.5525 -74.7814 226° Southwest 435 501 28,700 1,800 Climbing Washington Center
Thu 07:11:48 PM 39.4678 -74.8953 226° Southwest 435 501 31,000 2,250 Climbing Washington Center
Thu 07:12:48 PM 39.3828 -75.0061 225° Southwest 435 501 33,200 2,000 Climbing Washington Center
Thu 07:13:48 PM 39.3019 -75.1169 227° Southwest 430 495 35,000 1,750 Climbing Washington Center
Thu 07:14:48 PM 39.2211 -75.2325 228° Southwest 430 495 36,700 1,800 Climbing Washington Center
Thu 07:15:48 PM 39.1192 -75.3133 212° Southwest 430 495 38,600 1,600 Climbing Washington Center
Thu 07:16:48 PM 39.0111 -75.3644 200° South 425 489 39,900 950 Climbing Washington Center
Thu 07:17:48 PM 38.9028 -75.4183 201° Southwest 420 483 40,500 700 Climbing Washington Center
Thu 07:18:48 PM 38.7881 -75.4772 202° Southwest 432 497 41,300 750 Climbing Washington Center
Thu 07:19:48 PM 38.6736 -75.5411 204° Southwest 444 511 42,000 850 Climbing Washington Center
Thu 07:20:48 PM 38.5547 -75.5917 198° South 450 518 43,000 500 Climbing Washington Center
Thu 07:21:48 PM 38.4381 -75.6528 202° Southwest 450 518 43,000  Level Washington Center
Thu 07:22:48 PM 38.3211 -75.7081 200° South 450 518 43,000  Level Washington Center
Thu 07:23:48 PM 38.2000 -75.7633 200° South 450 518 43,000  Level Washington Center
Thu 07:24:48 PM 38.0811 -75.8214 201° Southwest 450 518 43,000  Level Washington Center
Thu 07:25:48 PM 37.9622 -75.8789 201° Southwest 456 525 43,000  Level Washington Center
Thu 07:26:48 PM 37.8431 -75.9389 202° Southwest 456 525 43,000  Level Washington Center
Thu 07:27:48 PM 37.7136 -76.0067 203° Southwest 456 525 43,000  Level Washington Center
Thu 07:28:48 PM 37.5944 -76.0636 201° Southwest 456 525 43,000  Level Washington Center
Thu 07:29:48 PM 37.4753 -76.1206 201° Southwest 456 525 43,000  Level Washington Center
Thu 07:30:48 PM 37.3625 -76.1667 198° South 461 531 43,000  Level Washington Center
Thu 07:31:48 PM 37.2414 -76.2233 200° South 466 536 43,000  Level Washington Center
Thu 07:32:48 PM 37.1219 -76.2822 201° Southwest 466 536 43,000  Level Washington Center
Thu 07:33:48 PM 37.0008 -76.3383 200° South 471 542 43,000  Level Washington Center
Thu 07:34:48 PM 36.8794 -76.3969 201° Southwest 471 542 43,000  Level Washington Center
Thu 07:35:48 PM 36.7558 -76.4525 200° South 471 542 43,000  Level Washington Center
Thu 07:36:48 PM 36.6239 -76.5211 203° Southwest 471 542 43,000  Level Washington Center
Thu 07:37:48 PM 36.5025 -76.5792 201° Southwest 471 542 43,000  Level Washington Center
Thu 07:38:48 PM 36.3811 -76.6342 200° South 471 542 43,000  Level Washington Center
Thu 07:39:48 PM 36.2594 -76.6894 200° South 471 542 43,000  Level Washington Center
Thu 07:40:48 PM 36.1506 -76.7367 199° South 471 542 43,000  Level Washington Center
Thu 07:41:48 PM 36.0292 -76.7914 200° South 471 542 43,000  Level Washington Center
Thu 07:42:48 PM 35.9136 -76.8461 201° Southwest 471 542 43,000  Level Washington Center
Thu 07:43:48 PM 35.7942 -76.9031 201° Southwest 466 536 43,000  Level Washington Center
Thu 07:44:48 PM 35.6767 -76.9550 200° South 460 529 43,000  Level Washington Center
Thu 07:45:48 PM 35.5467 -77.0139 200° South 455 524 43,000  Level Washington Center
Thu 07:46:48 PM 35.4272 -77.0681 200° South 450 518 43,000  Level Washington Center
Thu 07:47:48 PM 35.3075 -77.1217 200° South 450 518 43,000  Level Washington Center
Thu 07:48:48 PM 35.1878 -77.1753 200° South 455 524 43,000  Level Washington Center
Thu 07:49:48 PM 35.0683 -77.2289 200° South 455 524 43,000  Level Washington Center
Thu 07:50:48 PM 34.9486 -77.2822 200° South 455 524 43,000  Level Washington Center
Thu 07:51:48 PM 34.8414 -77.3281 199° South 455 524 43,000  Level Washington Center
Thu 07:52:48 PM 34.7092 -77.3908 201° Southwest 460 529 43,000  Level Washington Center
Thu 07:53:48 PM 34.5894 -77.4464 201° Southwest 460 529 43,000  Level Washington Center
Thu 07:54:48 PM 34.4636 -77.4889 196° South 460 529 43,000  Level Washington Center
Thu 07:56:56 PM 34.2081 -77.5697 195° South 455 524 43,000  Level Jacksonville Center
Thu 07:57:56 PM 34.0742 -77.6106 194° South 482 555 43,000  Level Jacksonville Center
Thu 07:58:56 PM 33.9508 -77.6506 195° South 482 555 43,000  Level Jacksonville Center
Thu 07:59:56 PM 33.8211 -77.6958 196° South 482 555 43,000  Level Jacksonville Center
Thu 08:00:56 PM 33.6933 -77.7308 193° South 482 555 43,000  Level Jacksonville Center
Thu 08:01:56 PM 33.5658 -77.7756 196° South 487 560 43,000  Level Jacksonville Center
Thu 08:02:56 PM 33.4278 -77.8183 194° South 481 554 43,000  Level Jacksonville Center
Thu 08:03:56 PM 33.3019 -77.8578 195° South 476 548 43,000  Level Jacksonville Center
Thu 08:04:56 PM 33.1783 -77.8994 196° South 470 541 43,000  Level Jacksonville Center
Thu 08:05:56 PM 33.0547 -77.9361 194° South 465 535 43,000  Level Jacksonville Center
Thu 08:06:56 PM 32.9267 -77.9753 194° South 470 541 43,000  Level Jacksonville Center
Thu 08:07:56 PM 32.7969 -78.0169 195° South 470 541 43,000  Level Jacksonville Center
Thu 08:08:56 PM 32.6669 -78.0561 194° South 480 552 43,000  Level Jacksonville Center
Thu 08:09:56 PM 32.5392 -78.0975 195° South 480 552 43,000  Level Jacksonville Center
Thu 08:10:56 PM 32.4050 -78.1364 194° South 486 559 43,000  Level Jacksonville Center
Thu 08:11:56 PM 32.2728 -78.1728 193° South 486 559 43,000  Level Jacksonville Center
Thu 08:12:56 PM 32.1408 -78.2164 196° South 491 565 43,000  Level Jacksonville Center
Thu 08:13:56 PM 32.0067 -78.2625 196° South 491 565 43,000  Level Jacksonville Center
Thu 08:14:56 PM 31.8789 -78.3031 195° South 486 559 43,000  Level Jacksonville Center
Thu 08:15:56 PM 31.7467 -78.3464 196° South 486 559 43,000  Level Jacksonville Center
Thu 08:16:56 PM 31.6147 -78.3894 196° South 491 565 43,000  Level Jacksonville Center
Thu 08:17:56 PM 31.4844 -78.4272 194° South 491 565 43,000  Level Jacksonville Center
Thu 08:18:56 PM 31.3525 -78.4725 196° South 491 565 43,000  Level Jacksonville Center
Thu 08:19:56 PM 31.2225 -78.5128 195° South 491 565 43,000  Level Jacksonville Center
Thu 08:20:56 PM 31.0903 -78.5553 195° South 491 565 43,000  Level Jacksonville Center
Thu 08:21:56 PM 30.9581 -78.5928 194° South 491 565 43,000  Level Jacksonville Center
Thu 08:22:56 PM 30.8342 -78.6372 197° South 486 559 43,000  Level Jacksonville Center
Thu 08:23:56 PM 30.6936 -78.6772 194° South 491 565 43,000  Level Jacksonville Center
Thu 08:24:51 PM 30.5747 -78.7175 196° South 491 565 43,000  Level Miami Center
Thu 08:25:51 PM 30.4594 -78.7589 197° South 471 542 43,000  Level Miami Center
Thu 08:26:51 PM 30.3297 -78.8044 197° South 473 544 43,000  Level Miami Center
Thu 08:27:51 PM 30.1978 -78.8500 197° South 486 559 43,000 -50 Level Miami Center
Thu 08:28:51 PM 30.0678 -78.8981 198° South 486 559 42,900  Descending Miami Center
Thu 08:29:51 PM 29.9461 -78.9508 201° Southwest 486 559 43,000 50 Climbing Miami Center
Thu 08:30:51 PM 29.8142 -78.9914 195° South 486 559 43,000  Level Miami Center
Thu 08:31:51 PM 29.6761 -79.0147 188° South 486 559 43,000  Level Miami Center
Thu 08:32:51 PM 29.5422 -79.0383 189° South 493 567 43,000  Level Miami Center
Thu 08:33:51 PM 29.4106 -79.0644 190° South 493 567 43,000  Level Miami Center
Thu 08:34:51 PM 29.2828 -79.0950 192° South 488 562 43,000  Level Miami Center
Thu 08:35:51 PM 29.1425 -79.1183 188° South 488 562 43,000 -650 Level Miami Center
Thu 08:36:51 PM 28.9942 -79.1439 189° South 488 562 41,700 -1,900 Descending Miami Center
Thu 08:37:51 PM 28.8517 -79.1717 190° South 505 581 39,200 -2,550 Descending Miami Center
Thu 08:38:51 PM 28.7114 -79.1972 189° South 510 587 36,600 -2,550 Descending Miami Center
Thu 08:39:51 PM 28.5714 -79.2203 188° South 510 587 34,100 -2,900 Descending Miami Center
Thu 08:40:51 PM 28.4392 -79.2669 197° South 505 581 30,800 -2,950 Descending Miami Center
Thu 08:41:51 PM 28.3128 -79.3258 202° Southwest 499 574 28,200 -2,300 Descending Miami Center
Thu 08:42:51 PM 28.1969 -79.3819 203° Southwest 479 551 26,200 -2,000 Descending Miami Center
Thu 08:43:51 PM 28.0875 -79.4336 203° Southwest 450 518 24,200 -1,900 Descending Miami Center
Thu 08:44:51 PM 27.9781 -79.4853 203° Southwest 437 503 22,400 -8,100 Descending Miami Center
Thu 08:45:51 PM 27.8728 -79.5347 203° Southwest 418 481 8,000 -1,800 Descending Miami Center
Thu 08:46:51 PM 27.7739 -79.5817 203° Southwest 394 453 18,800 4,550 Climbing Miami Center
Thu 08:47:51 PM 27.6833 -79.6239 202° Southwest 389 448 17,100 -1,650 Descending Miami Center
Thu 08:48:51 PM 27.5842 -79.6683 202° Southwest 389 448 15,500 -1,750 Descending Miami Center
Thu 08:49:51 PM 27.4789 -79.7197 203° Southwest 381 438 13,600 -1,650 Descending Miami Center
Thu 08:50:51 PM 27.3925 -79.7597 202° Southwest 364 419 12,200 -1,350 Descending Miami Center
Thu 08:51:51 PM 27.3144 -79.7975 203° Southwest 326 375 10,900 -1,300 Descending Miami Center
Thu 08:52:51 PM 27.2469 -79.8261 201° Southwest 293 337 9,600 -1,200 Descending Miami Center
Thu 08:53:51 PM 27.1775 -79.8594 203° Southwest 287 330 8,500 -800 Descending Miami Center
Thu 08:54:51 PM 27.0972 -79.9017 205° Southwest 287 330 8,000 -250 Descending Miami Center
Thu 08:55:51 PM 27.0275 -79.9417 207° Southwest 287 330 8,000  Level Miami Center
Thu 08:56:51 PM 26.9556 -79.9842 208° Southwest 287 330 8,000 -200 Level Miami Center
Thu 08:57:51 PM 26.9003 -80.0317 217° Southwest 294 338 7,600 -1,000 Descending Miami Center
Thu 08:58:51 PM 26.8492 -80.0744 217° Southwest 257 296 6,000 -2,150 Descending Miami Center
Thu 08:59:51 PM 26.8206 -80.1411 244° Southwest 221 254 3,300 -2,700 Descending Miami Center
Thu 09:01:00 PM 26.7845 -80.2951 255° West  Level FlightAware Approximate
Thu 09:08:00 PM 26.6832 -80.0956 110° East  Level Estimated
Thu 09:09:00 PM 26.6832 -80.0956 110° East  Level Estimated
Thu 09:10:00 PM 26.6832 -80.0956 110° East  Level Estimated
Thu 09:11:00 PM 26.6832 -80.0956 110° East  Level Estimated
Thu 09:12:00 PM 26.6832 -80.0956 110° East  Level Estimated
Thu 09:13:00 PM 26.6832 -80.0956 110° East  Level Estimated

Login

Don't have an account? Register now (free) for customized features, flight alerts, and more!